createdAt,value
2022-09-16T00:00:33.578Z,94.14
2022-09-16T00:01:33.539Z,94.04
2022-09-16T00:02:36.885Z,93.84
2022-09-16T00:03:34.538Z,93.84
2022-09-16T00:04:33.481Z,93.84
2022-09-16T00:05:33.473Z,93.84
2022-09-16T00:06:33.487Z,94.04
2022-09-16T00:07:33.454Z,93.98
2022-09-16T00:08:33.436Z,94.38
2022-09-16T00:09:33.433Z,94.38
2022-09-16T00:10:33.446Z,94.38
2022-09-16T00:11:33.405Z,93.88
2022-09-16T00:12:33.389Z,93.98
2022-09-16T00:13:33.380Z,94.29
2022-09-16T00:14:33.367Z,94.29
2022-09-16T00:15:33.379Z,94.18
2022-09-16T00:16:33.415Z,95.20
2022-09-16T00:17:33.334Z,94.38
2022-09-16T00:18:33.320Z,94.70
2022-09-16T00:19:33.336Z,94.70
2022-09-16T00:20:33.301Z,94.38
2022-09-16T00:21:33.311Z,95.10
2022-09-16T00:22:33.278Z,95.31
2022-09-16T00:23:33.273Z,95.35
2022-09-16T00:24:33.256Z,95.04
2022-09-16T00:25:33.248Z,95.00
2022-09-16T00:26:33.252Z,95.56
2022-09-16T00:27:33.226Z,95.31
2022-09-16T00:28:33.210Z,95.10
2022-09-16T00:29:33.202Z,95.31
2022-09-16T00:30:33.203Z,95.10
2022-09-16T00:31:33.255Z,95.04
2022-09-16T00:32:33.182Z,95.20
2022-09-16T00:33:33.156Z,95.31
2022-09-16T00:34:33.139Z,95.51
2022-09-16T00:35:33.151Z,95.81
2022-09-16T00:36:33.140Z,95.61
2022-09-16T00:37:33.112Z,95.41
2022-09-16T00:38:33.094Z,95.20
2022-09-16T00:39:33.123Z,95.41
2022-09-16T00:40:33.275Z,95.41
2022-09-16T00:41:33.154Z,95.41
2022-09-16T00:42:33.066Z,95.41
2022-09-16T00:43:33.065Z,95.51
2022-09-16T00:44:33.091Z,95.31
2022-09-16T00:45:33.043Z,96.12
2022-09-16T00:46:33.115Z,95.65
2022-09-16T00:47:32.997Z,95.25
2022-09-16T00:48:33.001Z,95.56
2022-09-16T00:49:32.978Z,95.56
2022-09-16T00:50:32.961Z,95.35
2022-09-16T00:51:32.972Z,95.25
2022-09-16T00:52:32.964Z,95.65
2022-09-16T00:53:32.926Z,95.51
2022-09-16T00:54:32.934Z,95.96
2022-09-16T00:55:32.909Z,96.02
2022-09-16T00:56:32.889Z,96.22
2022-09-16T00:57:32.882Z,95.72
2022-09-16T00:58:32.893Z,95.72
2022-09-16T00:59:32.858Z,95.76
2022-09-16T01:00:32.897Z,95.31
2022-09-16T01:01:32.968Z,94.79
2022-09-16T01:02:32.826Z,95.41
2022-09-16T01:03:32.838Z,95.81
2022-09-16T01:04:32.804Z,95.41
2022-09-16T01:05:32.793Z,96.12
2022-09-16T01:06:32.783Z,95.20
2022-09-16T01:07:32.790Z,95.41
2022-09-16T01:08:32.781Z,95.51
2022-09-16T01:09:32.748Z,95.56
2022-09-16T01:10:32.737Z,95.10
2022-09-16T01:11:32.732Z,95.41
2022-09-16T01:12:32.711Z,95.20
2022-09-16T01:13:32.724Z,95.10
2022-09-16T01:14:32.688Z,95.00
2022-09-16T01:15:32.677Z,94.49
2022-09-16T01:16:32.752Z,94.53
2022-09-16T01:17:32.657Z,95.31
2022-09-16T01:18:32.664Z,95.41
2022-09-16T01:19:32.655Z,95.00
2022-09-16T01:20:32.621Z,95.25
2022-09-16T01:21:32.610Z,95.51
2022-09-16T01:22:32.604Z,95.35
2022-09-16T01:23:32.629Z,95.56
2022-09-16T01:24:32.577Z,95.65
2022-09-16T01:25:32.564Z,95.04
2022-09-16T01:26:32.551Z,95.35
2022-09-16T01:27:32.564Z,94.84
2022-09-16T01:28:32.531Z,95.04
2022-09-16T01:29:32.525Z,95.15
2022-09-16T01:30:32.507Z,94.33
2022-09-16T01:31:32.610Z,94.74
2022-09-16T01:32:32.485Z,94.49
2022-09-16T01:33:32.493Z,94.29
2022-09-16T01:34:32.462Z,94.38
2022-09-16T01:35:32.539Z,94.29
2022-09-16T01:36:32.462Z,95.35
2022-09-16T01:37:32.430Z,95.25
2022-09-16T01:38:32.415Z,95.00
2022-09-16T01:39:32.431Z,95.04
2022-09-16T01:40:32.476Z,95.00
2022-09-16T01:41:32.386Z,95.81
2022-09-16T01:42:32.372Z,96.27
2022-09-16T01:43:32.381Z,95.45
2022-09-16T01:44:32.393Z,95.45
2022-09-16T01:45:32.339Z,96.02
2022-09-16T01:46:32.362Z,95.41
2022-09-16T01:47:32.315Z,95.51
2022-09-16T01:48:32.301Z,95.20
2022-09-16T01:49:32.342Z,95.41
2022-09-16T01:50:32.282Z,95.41
2022-09-16T01:51:32.271Z,95.41
2022-09-16T01:52:32.268Z,95.51
2022-09-16T01:53:32.246Z,95.10
2022-09-16T01:54:32.262Z,95.31
2022-09-16T01:55:32.241Z,95.31
2022-09-16T01:56:32.215Z,95.72
2022-09-16T01:57:32.200Z,96.12
2022-09-16T01:58:32.189Z,95.20
2022-09-16T01:59:32.198Z,95.41
2022-09-16T02:00:32.171Z,95.16
2022-09-16T02:01:32.166Z,96.08
2022-09-16T02:02:32.257Z,95.41
2022-09-16T02:03:32.134Z,95.41
2022-09-16T02:04:32.200Z,95.77
2022-09-16T02:05:32.135Z,95.36
2022-09-16T02:06:32.127Z,95.20
2022-09-16T02:07:32.088Z,94.95
2022-09-16T02:08:32.076Z,95.36
2022-09-16T02:09:32.066Z,95.06
2022-09-16T02:10:32.081Z,95.41
2022-09-16T02:11:32.085Z,95.31
2022-09-16T02:12:32.030Z,95.36
2022-09-16T02:13:32.021Z,95.16
2022-09-16T02:14:32.007Z,95.06
2022-09-16T02:15:32.022Z,95.57
2022-09-16T02:16:31.987Z,94.38
2022-09-16T02:17:31.980Z,94.55
2022-09-16T02:18:31.998Z,94.90
2022-09-16T02:19:31.960Z,94.45
2022-09-16T02:20:31.942Z,95.57
2022-09-16T02:21:31.956Z,94.34
2022-09-16T02:22:31.959Z,94.90
2022-09-16T02:23:31.907Z,95.16
2022-09-16T02:24:31.895Z,95.26
2022-09-16T02:25:31.906Z,95.06
2022-09-16T02:26:31.871Z,95.16
2022-09-16T02:27:31.883Z,95.26
2022-09-16T02:28:31.890Z,95.06
2022-09-16T02:29:31.867Z,95.16
2022-09-16T02:30:31.950Z,95.36
2022-09-16T02:31:31.873Z,95.06
2022-09-16T02:32:31.831Z,95.36
2022-09-16T02:33:31.796Z,95.16
2022-09-16T02:34:31.787Z,95.26
2022-09-16T02:35:31.773Z,95.26
2022-09-16T02:36:31.781Z,95.47
2022-09-16T02:37:31.749Z,95.36
2022-09-16T02:38:31.736Z,95.77
2022-09-16T02:39:31.734Z,95.06
2022-09-16T02:40:31.776Z,95.36
2022-09-16T02:41:31.736Z,95.36
2022-09-16T02:42:31.725Z,95.26
2022-09-16T02:43:31.732Z,95.26
2022-09-16T02:44:31.670Z,94.55
2022-09-16T02:45:31.847Z,94.14
2022-09-16T02:46:31.841Z,94.24
2022-09-16T02:47:31.637Z,93.84
2022-09-16T02:48:31.626Z,93.99
2022-09-16T02:49:31.615Z,94.65
2022-09-16T02:50:31.602Z,94.34
2022-09-16T02:51:31.613Z,94.20
2022-09-16T02:52:31.582Z,94.40
2022-09-16T02:53:31.572Z,93.79
2022-09-16T02:54:31.567Z,94.14
2022-09-16T02:55:31.847Z,94.50
2022-09-16T02:56:31.564Z,94.40
2022-09-16T02:57:31.550Z,94.65
2022-09-16T02:58:31.511Z,94.24
2022-09-16T02:59:31.525Z,94.65
2022-09-16T03:00:31.486Z,94.45
2022-09-16T03:01:31.517Z,94.75
2022-09-16T03:02:31.484Z,94.75
2022-09-16T03:03:31.456Z,94.45
2022-09-16T03:04:31.448Z,94.24
2022-09-16T03:05:31.432Z,93.93
2022-09-16T03:06:31.443Z,94.24
2022-09-16T03:07:31.408Z,94.45
2022-09-16T03:08:31.395Z,94.34
2022-09-16T03:09:31.414Z,94.55
2022-09-16T03:10:31.461Z,94.85
2022-09-16T03:11:31.393Z,94.24
2022-09-16T03:12:31.354Z,94.45
2022-09-16T03:13:31.351Z,95.36
2022-09-16T03:14:31.340Z,94.65
2022-09-16T03:15:31.338Z,94.55
2022-09-16T03:16:31.309Z,94.55
2022-09-16T03:17:31.327Z,95.06
2022-09-16T03:18:31.288Z,94.55
2022-09-16T03:19:31.302Z,94.55
2022-09-16T03:20:31.260Z,94.85
2022-09-16T03:21:31.250Z,94.85
2022-09-16T03:22:31.260Z,94.95
2022-09-16T03:23:31.230Z,94.45
2022-09-16T03:24:31.219Z,94.85
2022-09-16T03:25:31.224Z,94.45
2022-09-16T03:26:31.209Z,95.26
2022-09-16T03:27:31.205Z,95.36
2022-09-16T03:28:31.172Z,95.26
2022-09-16T03:29:31.185Z,94.55
2022-09-16T03:30:31.148Z,94.34
2022-09-16T03:31:31.194Z,94.55
2022-09-16T03:32:31.130Z,95.36
2022-09-16T03:33:31.114Z,95.26
2022-09-16T03:34:31.102Z,94.55
2022-09-16T03:35:31.117Z,95.06
2022-09-16T03:36:31.088Z,95.36
2022-09-16T03:37:31.091Z,95.26
2022-09-16T03:38:31.061Z,95.36
2022-09-16T03:39:31.049Z,95.26
2022-09-16T03:40:31.090Z,94.45
2022-09-16T03:41:31.027Z,94.34
2022-09-16T03:42:31.035Z,95.26
2022-09-16T03:43:31.022Z,95.06
2022-09-16T03:44:30.990Z,94.45
2022-09-16T03:45:31.080Z,94.55
2022-09-16T03:46:31.061Z,94.34
2022-09-16T03:47:30.976Z,95.06
2022-09-16T03:48:30.945Z,94.34
2022-09-16T03:49:30.961Z,94.65
2022-09-16T03:50:30.964Z,94.65
2022-09-16T03:51:30.916Z,94.34
2022-09-16T03:52:30.909Z,94.34
2022-09-16T03:53:30.910Z,94.65
2022-09-16T03:54:30.880Z,94.45
2022-09-16T03:55:30.872Z,95.06
2022-09-16T03:56:30.853Z,95.26
2022-09-16T03:57:30.842Z,94.45
2022-09-16T03:58:30.853Z,95.26
2022-09-16T03:59:30.845Z,94.45
2022-09-16T04:00:30.821Z,95.57
2022-09-16T04:01:30.850Z,95.57
2022-09-16T04:02:30.875Z,94.95
2022-09-16T04:03:33.295Z,95.26
2022-09-16T04:04:30.765Z,95.57
2022-09-16T04:05:30.754Z,95.52
2022-09-16T04:06:30.760Z,95.47
2022-09-16T04:07:30.730Z,95.26
2022-09-16T04:08:30.741Z,94.45
2022-09-16T04:09:30.742Z,94.85
2022-09-16T04:10:30.735Z,94.55
2022-09-16T04:11:30.684Z,94.45
2022-09-16T04:12:30.705Z,94.55
2022-09-16T04:13:30.685Z,95.26
2022-09-16T04:14:30.690Z,95.06
2022-09-16T04:15:30.642Z,95.26
2022-09-16T04:16:30.627Z,95.16
2022-09-16T04:17:30.617Z,95.26
2022-09-16T04:18:30.637Z,93.93
2022-09-16T04:19:30.614Z,94.55
2022-09-16T04:20:30.604Z,94.24
2022-09-16T04:21:30.573Z,94.14
2022-09-16T04:22:30.566Z,94.65
2022-09-16T04:23:30.553Z,94.55
2022-09-16T04:24:30.563Z,94.14
2022-09-16T04:25:30.615Z,94.75
2022-09-16T04:26:30.513Z,94.24
2022-09-16T04:27:30.502Z,94.14
2022-09-16T04:28:30.490Z,94.24
2022-09-16T04:29:30.484Z,94.24
2022-09-16T04:30:30.491Z,94.34
2022-09-16T04:31:30.460Z,94.24
2022-09-16T04:32:30.465Z,94.14
2022-09-16T04:33:30.457Z,94.24
2022-09-16T04:34:30.462Z,95.16
2022-09-16T04:35:30.482Z,93.93
2022-09-16T04:36:30.538Z,94.24
2022-09-16T04:37:30.393Z,94.14
2022-09-16T04:38:30.378Z,94.55
2022-09-16T04:39:30.390Z,94.34
2022-09-16T04:40:30.434Z,94.14
2022-09-16T04:41:30.345Z,94.14
2022-09-16T04:42:30.342Z,94.24
2022-09-16T04:43:30.322Z,93.93
2022-09-16T04:44:30.335Z,94.04
2022-09-16T04:45:30.300Z,93.79
2022-09-16T04:46:30.379Z,94.04
2022-09-16T04:47:30.281Z,93.84
2022-09-16T04:48:30.266Z,93.84
2022-09-16T04:49:30.257Z,93.93
2022-09-16T04:50:30.246Z,94.14
2022-09-16T04:51:30.275Z,93.99
2022-09-16T04:52:30.221Z,94.34
2022-09-16T04:53:30.228Z,94.55
2022-09-16T04:54:30.201Z,94.55
2022-09-16T04:55:30.217Z,94.55
2022-09-16T04:56:30.173Z,93.84
2022-09-16T04:57:30.217Z,93.73
2022-09-16T04:58:30.174Z,93.84
2022-09-16T04:59:30.143Z,94.08
2022-09-16T05:00:30.128Z,94.38
2022-09-16T05:01:30.257Z,93.98
2022-09-16T05:02:30.131Z,93.84
2022-09-16T05:03:30.195Z,94.34
2022-09-16T05:04:30.102Z,93.93
2022-09-16T05:05:30.072Z,94.55
2022-09-16T05:06:30.069Z,94.34
2022-09-16T05:07:30.075Z,95.31
2022-09-16T05:08:30.042Z,95.26
2022-09-16T05:09:30.052Z,95.36
2022-09-16T05:10:30.014Z,95.06
2022-09-16T05:11:30.006Z,95.77
2022-09-16T05:12:29.994Z,95.06
2022-09-16T05:13:30.001Z,95.47
2022-09-16T05:14:29.988Z,95.67
2022-09-16T05:15:29.961Z,95.77
2022-09-16T05:16:30.050Z,96.59
2022-09-16T05:17:49.763Z,96.22
2022-09-16T05:18:30.928Z,96.22
2022-09-16T05:19:29.939Z,96.89
2022-09-16T05:20:29.903Z,97.45
2022-09-16T05:21:29.892Z,97.55
2022-09-16T05:22:29.880Z,96.94
2022-09-16T05:23:29.997Z,97.86
2022-09-16T05:24:29.878Z,97.45
2022-09-16T05:25:29.851Z,97.45
2022-09-16T05:26:29.836Z,98.16
2022-09-16T05:27:29.844Z,97.65
2022-09-16T05:28:29.811Z,98.06
2022-09-16T05:29:29.824Z,97.96
2022-09-16T05:30:29.791Z,98.27
2022-09-16T05:31:29.784Z,98.36
2022-09-16T05:32:29.767Z,99.08
2022-09-16T05:33:29.815Z,98.88
2022-09-16T05:34:29.764Z,99.33
2022-09-16T05:35:29.734Z,99.02
2022-09-16T05:36:29.729Z,98.61
2022-09-16T05:37:29.720Z,99.33
2022-09-16T05:38:29.701Z,98.93
2022-09-16T05:39:30.200Z,99.39
2022-09-16T05:40:29.758Z,98.61
2022-09-16T05:41:29.665Z,99.79
2022-09-16T05:42:29.652Z,99.23
2022-09-16T05:43:29.643Z,99.64
2022-09-16T05:44:29.651Z,99.29
2022-09-16T05:45:32.405Z,99.59
2022-09-16T05:46:29.715Z,99.54
2022-09-16T05:47:29.598Z,99.08
2022-09-16T05:48:29.587Z,99.18
2022-09-16T05:49:29.576Z,99.08
2022-09-16T05:50:29.566Z,99.43
2022-09-16T05:51:29.576Z,99.49
2022-09-16T05:52:29.540Z,99.64
2022-09-16T05:53:29.529Z,99.59
2022-09-16T05:54:29.536Z,99.69
2022-09-16T05:55:29.622Z,99.59
2022-09-16T05:56:29.517Z,99.69
2022-09-16T05:57:29.484Z,99.99
2022-09-16T05:58:29.492Z,99.43
2022-09-16T05:59:29.488Z,99.59
2022-09-16T06:00:29.542Z,99.79
2022-09-16T06:01:29.524Z,99.90
2022-09-16T06:02:29.482Z,99.90
2022-09-16T06:03:29.419Z,99.79
2022-09-16T06:04:29.427Z,99.79
2022-09-16T06:05:29.396Z,99.99
2022-09-16T06:06:29.381Z,99.79
2022-09-16T06:07:29.370Z,99.99
2022-09-16T06:08:29.359Z,99.39
2022-09-16T06:09:29.352Z,99.18
2022-09-16T06:10:29.479Z,99.49
2022-09-16T06:11:29.447Z,99.18
2022-09-16T06:12:29.316Z,99.29
2022-09-16T06:13:29.304Z,99.18
2022-09-16T06:14:29.310Z,99.34
2022-09-16T06:15:29.330Z,99.54
2022-09-16T06:16:29.294Z,99.44
2022-09-16T06:17:29.291Z,99.24
2022-09-16T06:18:29.248Z,99.24
2022-09-16T06:19:29.246Z,99.44
2022-09-16T06:20:29.227Z,99.14
2022-09-16T06:21:29.237Z,99.04
2022-09-16T06:22:29.209Z,99.14
2022-09-16T06:23:29.191Z,99.40
2022-09-16T06:24:29.181Z,98.89
2022-09-16T06:25:29.197Z,98.68
2022-09-16T06:26:29.271Z,99.09
2022-09-16T06:27:29.292Z,98.89
2022-09-16T06:28:29.157Z,98.68
2022-09-16T06:29:29.123Z,99.44
2022-09-16T06:30:31.121Z,99.34
2022-09-16T06:31:29.098Z,99.34
2022-09-16T06:32:29.100Z,99.24
2022-09-16T06:33:29.113Z,99.44
2022-09-16T06:34:29.087Z,99.14
2022-09-16T06:35:29.074Z,99.24
2022-09-16T06:36:29.049Z,99.04
2022-09-16T06:37:29.052Z,98.43
2022-09-16T06:38:29.026Z,98.47
2022-09-16T06:39:29.010Z,99.04
2022-09-16T06:40:29.076Z,98.02
2022-09-16T06:41:28.985Z,98.52
2022-09-16T06:42:28.999Z,99.14
2022-09-16T06:43:29.079Z,99.14
2022-09-16T06:44:28.955Z,98.52
2022-09-16T06:45:28.941Z,98.22
2022-09-16T06:46:29.039Z,98.93
2022-09-16T06:47:28.943Z,98.43
2022-09-16T06:48:28.911Z,98.73
2022-09-16T06:49:28.897Z,98.73
2022-09-16T06:50:28.888Z,98.11
2022-09-16T06:51:28.872Z,98.38
2022-09-16T06:52:28.911Z,99.09
2022-09-16T06:53:28.856Z,97.97
2022-09-16T06:54:28.842Z,98.48
2022-09-16T06:55:28.834Z,98.22
2022-09-16T06:56:28.916Z,98.38
2022-09-16T06:57:28.804Z,98.38
2022-09-16T06:58:28.794Z,98.27
2022-09-16T06:59:28.901Z,98.38
2022-09-16T07:00:28.776Z,98.48
2022-09-16T07:01:29.014Z,98.38
2022-09-16T07:02:28.813Z,98.27
2022-09-16T07:03:28.742Z,98.18
2022-09-16T07:04:28.729Z,98.27
2022-09-16T07:05:28.743Z,98.27
2022-09-16T07:06:49.559Z,98.18
2022-09-16T07:07:29.689Z,97.97
2022-09-16T07:08:28.684Z,97.97
2022-09-16T07:09:28.673Z,97.66
2022-09-16T07:10:28.661Z,97.97
2022-09-16T07:11:28.672Z,97.97
2022-09-16T07:12:28.637Z,97.66
2022-09-16T07:13:28.629Z,97.87
2022-09-16T07:14:28.620Z,97.21
2022-09-16T07:15:28.740Z,97.11
2022-09-16T07:16:28.637Z,97.06
2022-09-16T07:17:28.584Z,97.27
2022-09-16T07:18:28.570Z,97.16
2022-09-16T07:19:28.578Z,97.67
2022-09-16T07:20:28.545Z,97.53
2022-09-16T07:21:28.533Z,96.81
2022-09-16T07:22:28.525Z,97.12
2022-09-16T07:23:28.510Z,97.38
2022-09-16T07:24:28.523Z,96.46
2022-09-16T07:25:30.529Z,94.88
2022-09-16T07:26:29.506Z,93.80
2022-09-16T07:27:28.466Z,93.76
2022-09-16T07:28:28.468Z,94.27
2022-09-16T07:29:28.462Z,94.27
2022-09-16T07:30:28.611Z,94.12
2022-09-16T07:31:28.535Z,94.02
2022-09-16T07:32:28.418Z,93.71
2022-09-16T07:33:28.396Z,93.92
2022-09-16T07:34:28.412Z,94.53
2022-09-16T07:35:28.376Z,93.62
2022-09-16T07:36:28.390Z,93.71
2022-09-16T07:37:28.355Z,93.71
2022-09-16T07:38:28.342Z,95.24
2022-09-16T07:39:28.328Z,93.71
2022-09-16T07:40:29.844Z,94.02
2022-09-16T07:41:28.329Z,95.24
2022-09-16T07:42:28.320Z,93.96
2022-09-16T07:43:28.285Z,94.37
2022-09-16T07:44:28.275Z,93.96
2022-09-16T07:45:28.289Z,94.37
2022-09-16T07:46:28.250Z,94.27
2022-09-16T07:47:28.372Z,93.76
2022-09-16T07:48:32.455Z,94.17
2022-09-16T07:49:29.215Z,94.17
2022-09-16T07:50:28.203Z,93.86
2022-09-16T07:51:28.192Z,94.57
2022-09-16T07:52:28.212Z,94.17
2022-09-16T07:53:29.546Z,94.12
2022-09-16T07:54:28.162Z,93.76
2022-09-16T07:55:28.147Z,93.62
2022-09-16T07:56:28.136Z,93.66
2022-09-16T07:57:28.146Z,93.76
2022-09-16T07:58:28.114Z,94.07
2022-09-16T07:59:28.103Z,94.17
2022-09-16T08:00:28.091Z,93.96
2022-09-16T08:01:28.209Z,92.74
2022-09-16T08:02:28.213Z,93.15
2022-09-16T08:03:28.174Z,93.05
2022-09-16T08:04:28.086Z,93.05
2022-09-16T08:05:28.036Z,93.35
2022-09-16T08:06:28.058Z,93.05
2022-09-16T08:07:28.188Z,92.84
2022-09-16T08:08:28.003Z,93.45
2022-09-16T08:09:38.505Z,93.45
2022-09-16T08:10:32.237Z,94.07
2022-09-16T08:11:27.987Z,93.15
2022-09-16T08:12:27.953Z,93.92
2022-09-16T08:13:27.946Z,93.92
2022-09-16T08:14:27.933Z,94.02
2022-09-16T08:15:27.942Z,93.10
2022-09-16T08:16:27.973Z,92.96
2022-09-16T08:17:30.694Z,92.55
2022-09-16T08:18:28.906Z,92.21
2022-09-16T08:19:27.991Z,92.57
2022-09-16T08:20:27.864Z,91.41
2022-09-16T08:21:27.873Z,91.82
2022-09-16T08:22:27.847Z,90.86
2022-09-16T08:23:27.828Z,89.39
2022-09-16T08:24:27.818Z,89.39
2022-09-16T08:25:27.805Z,90.02
2022-09-16T08:26:27.845Z,88.90
2022-09-16T08:27:27.786Z,88.76
2022-09-16T08:28:39.632Z,86.98
2022-09-16T08:29:28.763Z,87.48
2022-09-16T08:30:27.749Z,86.10
2022-09-16T08:31:27.792Z,85.66
2022-09-16T08:32:27.727Z,84.34
2022-09-16T08:33:27.719Z,83.59
2022-09-16T08:34:27.709Z,84.30
2022-09-16T08:35:27.809Z,83.69
2022-09-16T08:36:27.707Z,81.97
2022-09-16T08:37:27.683Z,81.37
2022-09-16T08:38:27.661Z,82.58
2022-09-16T08:39:27.670Z,82.68
2022-09-16T08:40:27.654Z,83.73
2022-09-16T08:41:27.711Z,83.53
2022-09-16T08:42:27.614Z,83.53
2022-09-16T08:43:27.602Z,84.08
2022-09-16T08:44:27.605Z,83.57
2022-09-16T08:45:27.682Z,83.77
2022-09-16T08:46:27.591Z,84.63
2022-09-16T08:47:27.559Z,83.51
2022-09-16T08:48:28.786Z,84.77
2022-09-16T08:49:27.538Z,86.19
2022-09-16T08:50:27.527Z,86.80
2022-09-16T08:51:27.643Z,86.39
2022-09-16T08:52:27.520Z,85.47
2022-09-16T08:53:27.488Z,86.08
2022-09-16T08:54:27.487Z,87.10
2022-09-16T08:55:27.466Z,87.71
2022-09-16T08:56:27.483Z,86.80
2022-09-16T08:57:27.451Z,85.78
2022-09-16T08:58:27.434Z,85.68
2022-09-16T08:59:27.458Z,86.29
2022-09-16T09:00:27.410Z,85.38
2022-09-16T09:01:27.630Z,85.68
2022-09-16T09:02:27.714Z,86.19
2022-09-16T09:03:27.379Z,85.58
2022-09-16T09:04:27.369Z,85.21
2022-09-16T09:05:27.374Z,84.91
2022-09-16T09:06:27.345Z,85.92
2022-09-16T09:07:27.503Z,84.80
2022-09-16T09:08:27.452Z,84.20
2022-09-16T09:09:27.314Z,84.26
2022-09-16T09:10:27.297Z,85.88
2022-09-16T09:11:27.284Z,86.94
2022-09-16T09:12:27.819Z,86.53
2022-09-16T09:13:28.343Z,86.90
2022-09-16T09:14:27.549Z,86.39
2022-09-16T09:15:28.423Z,85.88
2022-09-16T09:16:27.273Z,85.38
2022-09-16T09:17:27.322Z,84.87
2022-09-16T09:18:27.232Z,84.66
2022-09-16T09:19:27.195Z,84.16
2022-09-16T09:20:27.184Z,83.95
2022-09-16T09:21:27.578Z,84.26
2022-09-16T09:22:27.164Z,85.47
2022-09-16T09:23:27.278Z,85.94
2022-09-16T09:24:27.166Z,86.82
2022-09-16T09:25:27.132Z,85.56
2022-09-16T09:26:27.117Z,85.38
2022-09-16T09:27:27.115Z,83.94
2022-09-16T09:28:27.095Z,83.36
2022-09-16T09:29:27.113Z,81.64
2022-09-16T09:30:27.074Z,80.22
2022-09-16T09:31:27.102Z,79.35
2022-09-16T09:32:27.069Z,80.16
2022-09-16T09:33:45.631Z,79.69
2022-09-16T09:34:28.026Z,78.58
2022-09-16T09:35:27.017Z,77.50
2022-09-16T09:36:27.028Z,78.21
2022-09-16T09:37:27.013Z,78.31
2022-09-16T09:38:26.979Z,78.62
2022-09-16T09:39:27.099Z,79.46
2022-09-16T09:40:27.024Z,79.97
2022-09-16T09:41:26.950Z,80.41
2022-09-16T09:42:26.958Z,80.01
2022-09-16T09:43:26.962Z,80.65
2022-09-16T09:44:26.916Z,81.67
2022-09-16T09:45:26.922Z,81.50
2022-09-16T09:46:26.924Z,79.47
2022-09-16T09:47:26.900Z,80.90
2022-09-16T09:48:26.899Z,80.99
2022-09-16T09:49:26.861Z,80.59
2022-09-16T09:50:26.865Z,79.07
2022-09-16T09:51:26.836Z,77.86
2022-09-16T09:52:26.830Z,77.51
2022-09-16T09:53:26.809Z,76.54
2022-09-16T09:54:26.803Z,75.82
2022-09-16T09:55:26.936Z,75.93
2022-09-16T09:56:26.777Z,77.14
2022-09-16T09:57:26.778Z,76.64
2022-09-16T09:58:26.755Z,78.02
2022-09-16T09:59:26.743Z,77.41
2022-09-16T10:00:26.756Z,77.51
2022-09-16T10:01:26.853Z,77.31
2022-09-16T10:02:26.759Z,76.40
2022-09-16T10:03:26.702Z,77.34
2022-09-16T10:04:26.694Z,77.82
2022-09-16T10:05:26.675Z,77.55
2022-09-16T10:06:26.690Z,78.33
2022-09-16T10:07:26.652Z,77.14
2022-09-16T10:08:26.645Z,78.06
2022-09-16T10:09:26.629Z,79.58
2022-09-16T10:10:26.627Z,77.86
2022-09-16T10:11:26.757Z,75.76
2022-09-16T10:12:26.602Z,75.15
2022-09-16T10:13:26.586Z,75.49
2022-09-16T10:14:26.599Z,75.18
2022-09-16T10:15:26.564Z,76.46
2022-09-16T10:16:26.663Z,74.98
2022-09-16T10:17:26.545Z,75.18
2022-09-16T10:18:26.554Z,75.18
2022-09-16T10:19:26.540Z,78.22
2022-09-16T10:20:26.505Z,77.51
2022-09-16T10:21:26.494Z,77.45
2022-09-16T10:22:26.488Z,74.81
2022-09-16T10:23:30.016Z,77.04
2022-09-16T10:24:26.466Z,77.48
2022-09-16T10:25:26.471Z,78.60
2022-09-16T10:26:26.439Z,80.77
2022-09-16T10:27:26.550Z,79.65
2022-09-16T10:28:26.416Z,81.88
2022-09-16T10:29:26.429Z,79.88
2022-09-16T10:30:26.415Z,78.12
2022-09-16T10:31:29.185Z,75.65
2022-09-16T10:32:27.372Z,76.43
2022-09-16T10:33:26.386Z,73.83
2022-09-16T10:34:26.349Z,72.28
2022-09-16T10:35:26.338Z,73.35
2022-09-16T10:36:26.325Z,71.20
2022-09-16T10:37:26.320Z,73.25
2022-09-16T10:38:26.305Z,71.64
2022-09-16T10:39:26.590Z,70.02
2022-09-16T10:40:26.365Z,68.71
2022-09-16T10:41:26.272Z,69.11
2022-09-16T10:42:26.281Z,68.10
2022-09-16T10:43:26.377Z,67.74
2022-09-16T10:44:26.235Z,65.22
2022-09-16T10:45:26.246Z,66.19
2022-09-16T10:46:26.271Z,67.03
2022-09-16T10:47:26.206Z,68.01
2022-09-16T10:48:26.187Z,64.99
2022-09-16T10:49:26.177Z,63.45
2022-09-16T10:50:26.185Z,61.94
2022-09-16T10:51:26.155Z,63.25
2022-09-16T10:52:26.223Z,62.82
2022-09-16T10:53:26.133Z,61.24
2022-09-16T10:54:26.121Z,61.91
2022-09-16T10:55:26.135Z,61.18
2022-09-16T10:56:26.099Z,60.61
2022-09-16T10:57:26.088Z,59.47
2022-09-16T10:58:26.077Z,61.88
2022-09-16T10:59:26.191Z,61.38
2022-09-16T11:00:26.076Z,59.16
2022-09-16T11:01:26.926Z,61.73
2022-09-16T11:02:26.035Z,62.77
2022-09-16T11:03:26.021Z,64.21
2022-09-16T11:04:26.009Z,65.05
2022-09-16T11:05:26.269Z,64.37
2022-09-16T11:06:25.993Z,64.81
2022-09-16T11:07:25.977Z,66.62
2022-09-16T11:08:25.965Z,64.26
2022-09-16T11:09:25.955Z,66.48
2022-09-16T11:10:25.966Z,66.69
2022-09-16T11:11:25.952Z,66.82
2022-09-16T11:12:25.923Z,68.43
2022-09-16T11:13:25.908Z,68.77
2022-09-16T11:14:25.906Z,68.37
2022-09-16T11:15:26.019Z,68.67
2022-09-16T11:16:25.955Z,69.98
2022-09-16T11:17:25.967Z,69.85
2022-09-16T11:18:25.850Z,68.30
2022-09-16T11:19:25.848Z,64.73
2022-09-16T11:20:26.031Z,65.75
2022-09-16T11:21:25.838Z,66.29
2022-09-16T11:22:25.808Z,67.27
2022-09-16T11:23:25.796Z,64.54
2022-09-16T11:24:25.790Z,65.85
2022-09-16T11:25:25.775Z,63.00
2022-09-16T11:26:25.782Z,64.89
2022-09-16T11:27:25.750Z,63.67
2022-09-16T11:28:25.739Z,63.11
2022-09-16T11:29:27.573Z,63.01
2022-09-16T11:30:25.953Z,62.78
2022-09-16T11:31:25.926Z,64.02
2022-09-16T11:32:25.694Z,63.07
2022-09-16T11:33:25.688Z,67.30
2022-09-16T11:34:25.673Z,66.63
2022-09-16T11:35:25.692Z,64.49
2022-09-16T11:36:26.678Z,64.76
2022-09-16T11:37:25.638Z,62.85
2022-09-16T11:38:25.630Z,62.45
2022-09-16T11:39:25.616Z,62.32
2022-09-16T11:40:25.775Z,62.19
2022-09-16T11:41:25.618Z,59.91
2022-09-16T11:42:25.813Z,61.11
2022-09-16T11:43:25.574Z,59.94
2022-09-16T11:44:25.559Z,59.89
2022-09-16T11:45:25.551Z,60.19
2022-09-16T11:46:25.558Z,62.84
2022-09-16T11:47:25.669Z,60.12
2022-09-16T11:48:25.521Z,60.85
2022-09-16T11:49:25.507Z,62.74
2022-09-16T11:50:25.514Z,61.59
2022-09-16T11:51:25.482Z,61.21
2022-09-16T11:52:25.686Z,63.16
2022-09-16T11:53:29.389Z,62.68
2022-09-16T11:54:26.495Z,63.73
2022-09-16T11:55:25.465Z,64.97
2022-09-16T11:56:25.426Z,64.67
2022-09-16T11:57:25.414Z,66.69
2022-09-16T11:58:25.402Z,68.40
2022-09-16T11:59:25.394Z,69.92
2022-09-16T12:00:25.379Z,72.28
2022-09-16T12:01:25.395Z,72.61
2022-09-16T12:02:25.609Z,72.31
2022-09-16T12:03:25.515Z,72.34
2022-09-16T12:04:25.339Z,73.96
2022-09-16T12:05:25.323Z,74.40
2022-09-16T12:06:25.329Z,74.20
2022-09-16T12:07:25.333Z,75.11
2022-09-16T12:08:25.291Z,75.11
2022-09-16T12:09:25.279Z,75.21
2022-09-16T12:10:25.268Z,74.10
2022-09-16T12:11:25.261Z,75.28
2022-09-16T12:12:25.265Z,74.94
2022-09-16T12:13:25.257Z,74.33
2022-09-16T12:14:25.221Z,73.12
2022-09-16T12:15:25.279Z,73.32
2022-09-16T12:16:28.117Z,72.51
2022-09-16T12:17:26.186Z,71.70
2022-09-16T12:18:25.288Z,71.94
2022-09-16T12:19:25.296Z,70.39
2022-09-16T12:20:25.154Z,70.53
2022-09-16T12:21:25.152Z,70.69
2022-09-16T12:22:25.132Z,68.44
2022-09-16T12:23:25.141Z,67.70
2022-09-16T12:24:25.107Z,69.28
2022-09-16T12:25:25.100Z,66.46
2022-09-16T12:26:25.084Z,66.63
2022-09-16T12:27:25.098Z,63.33
2022-09-16T12:28:25.063Z,65.01
2022-09-16T12:29:25.059Z,62.70
2022-09-16T12:30:25.038Z,62.90
2022-09-16T12:31:25.112Z,61.85
2022-09-16T12:32:25.039Z,63.39
2022-09-16T12:33:25.009Z,65.41
2022-09-16T12:34:25.041Z,65.48
2022-09-16T12:35:25.205Z,65.18
2022-09-16T12:36:24.971Z,65.38
2022-09-16T12:37:24.964Z,65.48
2022-09-16T12:38:24.971Z,66.16
2022-09-16T12:39:25.031Z,62.83
2022-09-16T12:40:24.990Z,63.73
2022-09-16T12:41:24.916Z,63.70
2022-09-16T12:42:24.909Z,65.22
2022-09-16T12:43:24.918Z,62.97
2022-09-16T12:44:33.869Z,64.81
2022-09-16T12:45:25.891Z,60.96
2022-09-16T12:46:24.954Z,60.93
2022-09-16T12:47:24.850Z,59.72
2022-09-16T12:48:24.858Z,57.83
2022-09-16T12:49:24.828Z,57.73
2022-09-16T12:50:24.849Z,57.65
2022-09-16T12:51:24.953Z,57.38
2022-09-16T12:52:24.790Z,58.39